Time;durP1;ratioP1;P1;durP2;ratioP2;P2;SDS_P1;SDS_P2;PMS_P1;PMS_P2;Temp;Humidity;BMP_temperature;BMP_pressure;BME280_temperature;BME280_humidity;BME280_pressure;Samples;Min_cycle;Max_cycle;Signal;HPM_P1;HPM_P2
2024/03/14 00:00:56;;;;;;;;;11.00;11.00;;;;;15.34;100.00;100982.19;2081826;28;46727;-59
2024/03/14 00:01:56;;;;;;;;;12.00;12.00;;;;;15.39;100.00;100986.44;2074179;28;46908;-60
2024/03/14 00:02:57;;;;;;;;;11.67;11.67;;;;;15.39;100.00;100978.44;2091360;28;45739;-60
2024/03/14 00:03:57;;;;;;;;;13.67;13.00;;;;;15.45;100.00;100980.84;2100911;28;46259;-60
2024/03/14 00:04:58;;;;;;;;;14.33;12.33;;;;;15.39;100.00;100978.44;2100926;28;46216;-60
2024/03/14 00:05:58;;;;;;;;;11.67;11.67;;;;;15.35;100.00;100976.78;2100117;28;46293;-60
2024/03/14 00:06:58;;;;;;;;;14.33;13.67;;;;;15.30;100.00;100973.41;2100127;28;46911;-61
2024/03/14 00:08:00;;;;;;;;;14.33;13.00;;;;;15.30;100.00;100976.09;2098158;28;46281;-60
2024/03/14 00:09:03;;;;;;;;;11.00;11.00;;;;;15.46;100.00;100973.69;2100298;28;46486;-60
2024/03/14 00:10:05;;;;;;;;;12.00;12.00;;;;;15.43;100.00;100974.69;2100893;28;46939;-62
2024/03/14 00:11:06;;;;;;;;;11.75;11.75;;;;;15.39;100.00;100967.72;2100081;28;46744;-61
2024/03/14 00:12:06;;;;;;;;;14.25;13.00;;;;;15.31;100.00;100962.66;2100533;28;45888;-60
2024/03/14 00:13:06;;;;;;;;;14.33;13.00;;;;;15.41;100.00;100965.00;2100109;28;46327;-59
2024/03/14 00:14:08;;;;;;;;;11.00;10.33;;;;;15.42;100.00;100961.38;2100774;28;45416;-60
2024/03/14 00:15:11;;;;;;;;;12.50;11.50;;;;;15.42;100.00;100967.59;2098547;28;46958;-60
2024/03/14 00:16:16;;;;;;;;;13.75;12.50;;;;;15.42;100.00;100961.38;2099833;28;46751;-60
2024/03/14 00:17:19;;;;;;;;;13.25;13.00;;;;;15.45;100.00;100963.94;2099645;28;46917;-59
2024/03/14 00:18:20;;;;;;;;;12.00;12.00;;;;;15.45;100.00;100956.78;2099419;28;46608;-60
2024/03/14 00:19:20;;;;;;;;;13.00;12.33;;;;;15.31;100.00;100959.97;2099591;28;46296;-60
2024/03/14 00:20:20;;;;;;;;;15.00;14.00;;;;;15.32;100.00;100952.84;2099317;28;46466;-58
2024/03/14 00:21:21;;;;;;;;;14.00;14.00;;;;;15.29;100.00;100952.94;2100295;28;45515;-59
2024/03/14 00:22:21;;;;;;;;;15.33;14.33;;;;;15.29;100.00;100952.94;2099552;28;46482;-59
2024/03/14 00:23:23;;;;;;;;;14.33;12.00;;;;;15.27;100.00;100949.47;2100890;28;46632;-59
2024/03/14 00:24:23;;;;;;;;;13.00;13.00;;;;;15.29;100.00;100955.63;2101043;28;46720;-60
2024/03/14 00:25:26;;;;;;;;;14.00;13.00;;;;;15.46;100.00;100953.19;2094859;28;46927;-60
2024/03/14 00:26:26;;;;;;;;;14.25;14.25;;;;;15.55;100.00;100952.84;2092471;28;46220;-59
2024/03/14 00:27:27;;;;;;;;;14.00;14.00;;;;;15.57;100.00;100953.66;2100607;28;46421;-59
2024/03/14 00:28:27;;;;;;;;;15.67;13.33;;;;;15.37;100.00;100945.50;2090959;28;46183;-60
2024/03/14 00:29:28;;;;;;;;;18.67;17.33;;;;;15.36;100.00;100949.09;2090710;28;47162;-59
2024/03/14 00:30:28;;;;;;;;;24.00;20.67;;;;;15.31;100.00;100945.75;2100509;28;46848;-60
2024/03/14 00:31:29;;;;;;;;;21.00;18.50;;;;;15.36;100.00;100946.44;2099718;28;46653;-59
2024/03/14 00:32:30;;;;;;;;;20.50;19.50;;;;;15.33;100.00;100951.91;2099780;27;46489;-59
2024/03/14 00:33:33;;;;;;;;;14.67;12.33;;;;;15.34;100.00;100948.28;2099943;28;46422;-60
2024/03/14 00:34:34;;;;;;;;;13.75;13.25;;;;;15.33;100.00;100957.25;2097350;28;46739;-60
2024/03/14 00:35:34;;;;;;;;;12.00;12.00;;;;;15.31;100.00;100949.28;2099364;28;46991;-59
2024/03/14 00:36:37;;;;;;;;;13.00;11.00;;;;;15.30;100.00;100955.56;2099587;28;46362;-59
2024/03/14 00:37:41;;;;;;;;;13.75;13.25;;;;;15.28;100.00;100953.88;2099511;28;46972;-59
2024/03/14 00:38:41;;;;;;;;;10.75;10.75;;;;;15.28;100.00;100948.53;2100651;28;46816;-60
2024/03/14 00:39:42;;;;;;;;;14.00;13.67;;;;;15.25;100.00;100948.66;2100852;28;47240;-59
2024/03/14 00:40:43;;;;;;;;;12.00;12.00;;;;;15.26;100.00;100948.59;2100713;28;46652;-58
2024/03/14 00:41:43;;;;;;;;;12.00;12.00;;;;;15.30;100.00;100949.34;2098210;28;46766;-59
2024/03/14 00:42:46;;;;;;;;;10.67;10.67;;;;;15.29;100.00;100950.28;2099737;28;46349;-59
2024/03/14 00:43:47;;;;;;;;;11.25;11.25;;;;;15.29;100.00;100947.59;2100310;28;46531;-59
2024/03/14 00:44:48;;;;;;;;;10.50;10.00;;;;;15.27;100.00;100944.13;2091037;28;46440;-58
2024/03/14 00:45:48;;;;;;;;;13.67;13.67;;;;;15.26;100.00;100937.03;2091352;28;46504;-59
2024/03/14 00:46:48;;;;;;;;;13.00;12.00;;;;;15.26;100.00;100943.25;2100569;28;46768;-59
2024/03/14 00:47:49;;;;;;;;;11.00;11.00;;;;;15.25;100.00;100937.97;2099883;28;46336;-60
2024/03/14 00:48:52;;;;;;;;;12.67;11.67;;;;;15.24;100.00;100937.06;2081809;28;46469;-60
2024/03/14 00:49:53;;;;;;;;;11.25;9.50;;;;;15.25;100.00;100946.00;2082903;28;46876;-60
2024/03/14 00:50:53;;;;;;;;;15.33;13.33;;;;;15.40;100.00;100942.72;2100275;28;46489;-59
2024/03/14 00:51:55;;;;;;;;;10.67;10.67;;;;;15.45;100.00;100937.19;2100462;28;46733;-59
2024/03/14 00:52:56;;;;;;;;;12.50;12.50;;;;;15.44;100.00;100944.34;2098754;28;46627;-60
2024/03/14 00:53:56;;;;;;;;;12.00;11.00;;;;;15.47;100.00;100941.56;2099596;28;46219;-60
2024/03/14 00:54:57;;;;;;;;;9.00;9.00;;;;;15.49;100.00;100934.34;2100014;28;45900;-60
2024/03/14 00:55:58;;;;;;;;;12.75;11.75;;;;;15.48;100.00;100934.41;2091377;28;46107;-60
2024/03/14 00:57:00;;;;;;;;;14.00;11.00;;;;;15.48;100.00;100929.03;2091501;28;45857;-60
2024/03/14 00:58:02;;;;;;;;;12.00;12.00;;;;;15.47;100.00;100932.66;2099891;28;46768;-60
2024/03/14 00:59:02;;;;;;;;;11.50;11.00;;;;;15.34;100.00;100926.03;2092614;28;46336;-60
2024/03/14 01:00:14;;;;;;;;;11.33;10.33;;;;;15.31;100.00;100933.25;2095602;28;46418;-62
2024/03/14 01:01:14;;;;;;;;;14.25;12.75;;;;;15.20;100.00;100929.22;2100428;28;46635;-61
2024/03/14 01:02:15;;;;;;;;;11.33;11.33;;;;;15.16;100.00;100933.81;2099052;28;46314;-61
2024/03/14 01:03:17;;;;;;;;;13.00;13.00;;;;;15.19;100.00;100932.84;2099731;28;46868;-61
2024/03/14 01:04:17;;;;;;;;;10.25;10.25;;;;;15.14;100.00;100933.00;2100259;28;46421;-61
2024/03/14 01:05:18;;;;;;;;;9.00;9.00;;;;;15.22;100.00;100938.06;2100565;28;46468;-61
2024/03/14 01:06:19;;;;;;;;;13.00;12.00;;;;;15.18;100.00;100929.28;2099251;28;46385;-60
2024/03/14 01:07:23;;;;;;;;;12.50;12.25;;;;;15.17;100.00;100942.72;2099856;28;46514;-60
2024/03/14 01:08:24;;;;;;;;;12.00;12.00;;;;;15.11;100.00;100925.09;2099844;28;46978;-59
2024/03/14 01:09:27;;;;;;;;;12.25;12.25;;;;;15.13;100.00;100922.38;2099365;28;47183;-60
2024/03/14 01:10:28;;;;;;;;;11.50;11.50;;;;;15.12;100.00;100923.28;2099285;28;47104;-61
2024/03/14 01:11:28;;;;;;;;;10.25;9.75;;;;;15.10;100.00;100920.66;2098295;28;46352;-61
2024/03/14 01:12:29;;;;;;;;;12.00;12.00;;;;;15.12;100.00;100925.97;2099533;28;46734;-61
2024/03/14 01:13:29;;;;;;;;;13.00;12.33;;;;;15.10;100.00;100930.50;2099850;28;47252;-60
2024/03/14 01:14:30;;;;;;;;;11.67;11.67;;;;;15.09;100.00;100924.28;2099363;28;46355;-59
2024/03/14 01:15:30;;;;;;;;;12.67;12.67;;;;;15.11;100.00;100919.75;2099447;28;46909;-59
2024/03/14 01:16:30;;;;;;;;;14.00;13.00;;;;;15.09;100.00;100920.72;2098941;28;46249;-61
2024/03/14 01:17:31;;;;;;;;;10.67;10.00;;;;;15.10;100.00;100922.47;2100344;28;46165;-59
2024/03/14 01:18:31;;;;;;;;;13.33;12.00;;;;;15.10;100.00;100923.34;2100546;28;46253;-60
2024/03/14 01:19:32;;;;;;;;;14.33;13.67;;;;;15.10;100.00;100923.34;2100937;28;46832;-59
2024/03/14 01:20:33;;;;;;;;;13.00;12.00;;;;;15.15;100.00;100926.75;2100242;28;46668;-60
2024/03/14 01:21:38;;;;;;;;;13.75;13.00;;;;;15.16;100.00;100917.78;2100571;28;46575;-60
2024/03/14 01:22:38;;;;;;;;;13.00;13.00;;;;;15.14;100.00;100922.31;2099902;28;46361;-60
2024/03/14 01:23:38;;;;;;;;;11.00;11.00;;;;;15.00;100.00;100921.97;2100089;28;46272;-60
2024/03/14 01:24:39;;;;;;;;;14.67;14.67;;;;;14.97;100.00;100922.91;2100576;28;46374;-58
2024/03/14 01:25:40;;;;;;;;;12.33;12.33;;;;;14.96;100.00;100920.31;2100092;28;46560;-59
2024/03/14 01:26:41;;;;;;;;;13.00;13.00;;;;;14.96;100.00;100921.19;2099361;28;46370;-59
2024/03/14 01:27:42;;;;;;;;;11.00;11.00;;;;;14.96;100.00;100925.66;2099275;28;46505;-58
2024/03/14 01:28:42;;;;;;;;;5.67;5.67;;;;;14.96;100.00;100925.66;2098848;28;46868;-59
2024/03/14 01:29:42;;;;;;;;;12.67;12.00;;;;;14.93;100.00;100920.44;2099386;28;46089;-60
2024/03/14 01:30:43;;;;;;;;;12.33;12.33;;;;;14.92;100.00;100916.88;2081262;28;46592;-60
2024/03/14 01:31:44;;;;;;;;;11.00;11.00;;;;;14.91;100.00;100915.16;2082079;28;46496;-61
2024/03/14 01:32:45;;;;;;;;;11.25;11.00;;;;;14.89;100.00;100913.47;2099982;28;46968;-61
2024/03/14 01:33:46;;;;;;;;;17.33;14.67;;;;;14.89;100.00;100914.34;2103723;28;46147;-60
2024/03/14 01:34:47;;;;;;;;;15.00;13.67;;;;;15.02;100.00;100907.59;2102950;28;45932;-58
2024/03/14 01:35:47;;;;;;;;;15.00;13.50;;;;;15.06;100.00;100905.69;2104042;28;46559;-61
2024/03/14 01:36:48;;;;;;;;;13.67;13.00;;;;;15.06;100.00;100904.81;2103544;28;46289;-60
2024/03/14 01:37:48;;;;;;;;;13.00;13.00;;;;;15.12;100.00;100904.56;2093919;28;46271;-61
2024/03/14 01:38:49;;;;;;;;;14.33;13.00;;;;;15.13;100.00;100906.34;2093764;28;47072;-60
2024/03/14 01:39:50;;;;;;;;;14.00;14.00;;;;;15.13;100.00;100895.66;2102293;28;46275;-61
2024/03/14 01:40:51;;;;;;;;;13.75;13.25;;;;;15.11;100.00;100901.03;2101879;28;46357;-60
2024/03/14 01:41:52;;;;;;;;;12.00;10.67;;;;;15.07;100.00;100907.44;2103652;28;46566;-60
2024/03/14 01:42:56;;;;;;;;;12.00;10.75;;;;;14.97;100.00;100903.34;2103481;28;46918;-61
2024/03/14 01:43:58;;;;;;;;;14.25;13.00;;;;;14.91;100.00;100909.81;2102728;28;46799;-61
2024/03/14 01:45:00;;;;;;;;;14.75;13.00;;;;;15.18;100.00;100910.56;2103445;28;46557;-60
2024/03/14 01:46:01;;;;;;;;;15.50;15.50;;;;;15.25;100.00;100911.22;2101997;28;46751;-60
2024/03/14 01:47:01;;;;;;;;;14.67;13.33;;;;;15.26;100.00;100908.50;2102368;28;46219;-60
2024/03/14 01:48:01;;;;;;;;;14.00;14.00;;;;;15.28;100.00;100897.75;2101411;28;46458;-61
2024/03/14 01:49:02;;;;;;;;;13.00;13.00;;;;;15.12;100.00;100907.25;2102381;28;46185;-61
2024/03/14 01:50:05;;;;;;;;;13.00;13.00;;;;;15.08;100.00;100906.50;2085078;28;46623;-59
2024/03/14 01:51:06;;;;;;;;;13.50;12.25;;;;;15.05;100.00;100900.41;2086445;28;46474;-60
2024/03/14 01:52:06;;;;;;;;;14.00;14.00;;;;;15.20;100.00;100894.47;2093285;28;46199;-60
2024/03/14 01:53:06;;;;;;;;;14.00;14.00;;;;;15.26;100.00;100900.47;2093982;28;46059;-61
2024/03/14 01:54:07;;;;;;;;;11.33;11.33;;;;;15.25;100.00;100884.50;2085083;28;47090;-60
2024/03/14 01:55:08;;;;;;;;;16.67;14.00;;;;;15.27;100.00;100891.53;2085354;28;46371;-60
2024/03/14 01:56:09;;;;;;;;;13.00;13.00;;;;;15.28;100.00;100882.56;2084951;28;46573;-60
2024/03/14 01:57:10;;;;;;;;;12.00;12.00;;;;;15.27;100.00;100885.31;2085049;28;46092;-61
2024/03/14 01:58:15;;;;;;;;;12.50;11.00;;;;;15.24;100.00;100886.25;2085262;28;46769;-60
2024/03/14 01:59:15;;;;;;;;;14.50;13.25;;;;;15.23;100.00;100886.31;2085481;28;46745;-59
2024/03/14 02:00:18;;;;;;;;;14.00;13.33;;;;;15.25;100.00;100881.81;2085440;28;46452;-61
2024/03/14 02:01:23;;;;;;;;;13.75;13.75;;;;;15.25;100.00;100879.16;2084855;28;46515;-60
2024/03/14 02:02:24;;;;;;;;;13.75;13.75;;;;;15.23;100.00;100880.97;2084731;28;46784;-60
2024/03/14 02:03:25;;;;;;;;;14.25;13.25;;;;;15.08;100.00;100884.25;2085358;28;46443;-58
2024/03/14 02:04:42;;;;;;;;;11.00;11.00;;;;;15.03;100.00;100881.75;2085474;28;46874;-60
2024/03/14 02:05:53;;;;;;;;;11.75;11.75;;;;;14.98;100.00;100881.91;2081056;28;46314;-60
2024/03/14 02:07:13;;;;;;;;;13.50;13.50;;;;;15.11;100.00;100878.78;2084995;28;46109;-61
2024/03/14 02:08:14;;;;;;;;;13.75;13.75;;;;;15.14;100.00;100876.00;2085427;28;47124;-61
2024/03/14 02:09:16;;;;;;;;;13.33;13.33;;;;;15.14;100.00;100876.00;2083734;28;46901;-62
2024/03/14 02:10:23;;;;;;;;;12.50;12.50;;;;;15.14;100.00;100873.34;2084771;28;46167;-60
2024/03/14 02:11:24;;;;;;;;;13.00;12.75;;;;;15.11;100.00;100874.28;2086020;28;46670;-61
2024/03/14 02:12:24;;;;;;;;;12.00;12.00;;;;;14.90;100.00;100870.66;2076598;28;46302;-61
2024/03/14 02:13:24;;;;;;;;;15.00;14.00;;;;;14.85;100.00;100864.59;2077244;28;46495;-62
2024/03/14 02:14:25;;;;;;;;;15.67;14.33;;;;;14.86;100.00;100868.13;2069206;28;45980;-60
2024/03/14 02:15:25;;;;;;;;;17.67;16.00;;;;;14.99;100.00;100873.00;2069541;28;47504;-60
2024/03/14 02:16:26;;;;;;;;;13.00;13.00;;;;;14.96;100.00;100865.06;2085179;28;46660;-60
2024/03/14 02:17:26;;;;;;;;;13.33;13.33;;;;;15.06;100.00;100867.41;2084552;28;46153;-61
2024/03/14 02:18:26;;;;;;;;;12.33;12.00;;;;;14.90;100.00;100862.63;2085543;28;45720;-60
2024/03/14 02:19:27;;;;;;;;;14.33;14.33;;;;;14.88;100.00;100859.16;2082574;28;46687;-61
2024/03/14 02:20:27;;;;;;;;;11.67;11.67;;;;;14.87;100.00;100854.75;2056768;28;46660;-61
2024/03/14 02:21:27;;;;;;;;;13.00;13.00;;;;;14.85;100.00;100861.03;2056720;28;46679;-61
2024/03/14 02:22:28;;;;;;;;;16.00;12.33;;;;;14.84;100.00;100862.84;2085457;28;46645;-61
2024/03/14 02:23:29;;;;;;;;;12.67;12.67;;;;;14.85;100.00;100861.03;2075037;28;45953;-61
2024/03/14 02:24:29;;;;;;;;;14.00;14.00;;;;;15.01;100.00;100852.41;2077037;28;46803;-60
2024/03/14 02:25:29;;;;;;;;;12.00;12.00;;;;;15.03;100.00;100857.69;2085564;28;46655;-60
2024/03/14 02:26:30;;;;;;;;;15.33;15.33;;;;;15.06;100.00;100852.22;2102778;28;46560;-59
2024/03/14 02:27:30;;;;;;;;;15.33;15.33;;;;;14.95;100.00;100855.31;2103150;28;45940;-61
2024/03/14 02:28:30;;;;;;;;;13.67;13.67;;;;;15.09;100.00;100852.09;2103457;28;46700;-61
2024/03/14 02:29:31;;;;;;;;;12.33;12.33;;;;;15.12;100.00;100849.34;2102723;28;46272;-61
2024/03/14 02:30:31;;;;;;;;;13.33;13.00;;;;;15.13;100.00;100851.09;2102341;28;46769;-58
2024/03/14 02:31:32;;;;;;;;;12.33;12.33;;;;;15.14;100.00;100846.59;2102818;28;46154;-61
2024/03/14 02:32:32;;;;;;;;;15.00;14.00;;;;;15.13;100.00;100847.53;2104648;27;46495;-60
2024/03/14 02:33:33;;;;;;;;;13.67;13.67;;;;;15.12;100.00;100846.66;2099060;28;46449;-61
2024/03/14 02:34:34;;;;;;;;;15.00;14.33;;;;;15.12;100.00;100845.75;2098644;28;46382;-61
2024/03/14 02:35:34;;;;;;;;;13.75;13.75;;;;;14.93;100.00;100848.28;2107622;27;46687;-61
2024/03/14 02:36:35;;;;;;;;;16.67;15.33;;;;;15.02;100.00;100845.28;2108129;27;46133;-60
2024/03/14 02:37:36;;;;;;;;;14.33;13.00;;;;;15.08;100.00;100838.81;2107621;27;46268;-61
2024/03/14 02:38:37;;;;;;;;;14.75;13.50;;;;;15.09;100.00;100844.09;2106741;27;46540;-61
2024/03/14 02:39:38;;;;;;;;;14.67;14.67;;;;;15.09;100.00;100836.06;2107650;27;46568;-60
2024/03/14 02:40:39;;;;;;;;;14.25;14.25;;;;;15.08;100.00;100837.00;2106363;27;47109;-61
2024/03/14 02:41:39;;;;;;;;;14.67;13.33;;;;;15.08;100.00;100837.00;2098486;28;46555;-61
2024/03/14 02:42:39;;;;;;;;;13.67;13.33;;;;;15.06;100.00;100833.53;2098153;28;46322;-60
2024/03/14 02:43:41;;;;;;;;;14.00;14.00;;;;;15.05;100.00;100833.59;2098244;28;46709;-60
2024/03/14 02:44:43;;;;;;;;;16.25;13.00;;;;;15.04;100.00;100829.16;2098131;27;45612;-60
2024/03/14 02:45:44;;;;;;;;;12.75;12.75;;;;;15.01;100.00;100831.03;2107776;27;46419;-60
2024/03/14 02:46:45;;;;;;;;;12.33;12.33;;;;;15.02;100.00;100826.56;2107824;27;46138;-59
2024/03/14 02:47:47;;;;;;;;;13.50;12.50;;;;;15.00;100.00;100823.94;2107687;27;46566;-60
2024/03/14 02:48:48;;;;;;;;;13.00;12.50;;;;;15.00;100.00;100823.94;2108284;27;46820;-60
2024/03/14 02:49:49;;;;;;;;;12.33;11.67;;;;;15.00;100.00;100825.75;2107449;27;45662;-60
2024/03/14 02:50:50;;;;;;;;;11.50;11.50;;;;;14.98;100.00;100824.91;2107839;27;46312;-60
2024/03/14 02:51:50;;;;;;;;;12.00;11.33;;;;;14.99;100.00;100824.88;2097543;28;46434;-61
2024/03/14 02:52:50;;;;;;;;;12.00;11.00;;;;;15.01;100.00;100825.69;2098021;28;46922;-61
2024/03/14 02:53:50;;;;;;;;;12.67;12.00;;;;;14.93;100.00;100819.75;2107313;27;45978;-60
2024/03/14 02:54:51;;;;;;;;;12.00;12.00;;;;;14.99;100.00;100814.19;2106889;27;46343;-60
2024/03/14 02:55:52;;;;;;;;;11.00;10.00;;;;;15.01;100.00;100815.00;2108500;27;45919;-59
2024/03/14 02:56:52;;;;;;;;;11.00;9.00;;;;;15.01;100.00;100812.31;2097746;28;45925;-60
2024/03/14 02:57:53;;;;;;;;;10.00;10.00;;;;;15.03;100.00;100814.94;2097430;28;46501;-60
2024/03/14 02:58:54;;;;;;;;;1.75;0.00;;;;;15.03;100.00;100822.94;2106984;27;46413;-60
2024/03/14 02:59:54;;;;;;;;;14.67;13.33;;;;;15.02;100.00;100815.88;2107561;27;46484;-59
2024/03/14 03:00:54;;;;;;;;;12.00;12.00;;;;;15.02;100.00;100818.53;2106698;27;46209;-60
2024/03/14 03:01:55;;;;;;;;;11.67;9.67;;;;;15.02;100.00;100819.41;2107567;27;46187;-61
2024/03/14 03:02:55;;;;;;;;;11.67;11.67;;;;;14.90;100.00;100819.00;2108046;27;45660;-60
2024/03/14 03:03:55;;;;;;;;;9.00;9.00;;;;;14.80;100.00;100814.94;2107148;27;46272;-60
2024/03/14 03:04:56;;;;;;;;;12.67;12.00;;;;;14.78;100.00;100809.66;2107662;27;46485;-60
2024/03/14 03:05:56;;;;;;;;;12.33;11.00;;;;;14.78;100.00;100814.13;2107469;27;46282;-58
2024/03/14 03:06:58;;;;;;;;;10.00;9.67;;;;;14.77;100.00;100809.72;2106830;27;46196;-59
2024/03/14 03:07:59;;;;;;;;;13.00;11.75;;;;;14.77;100.00;100815.94;2106929;27;46295;-61
2024/03/14 03:08:59;;;;;;;;;11.75;11.50;;;;;14.77;100.00;100815.06;2106320;27;46388;-61
2024/03/14 03:10:00;;;;;;;;;11.00;10.33;;;;;14.77;100.00;100815.06;2108154;27;46523;-61
2024/03/14 03:11:00;;;;;;;;;9.00;8.67;;;;;14.77;100.00;100812.38;2107495;27;46232;-60
2024/03/14 03:12:02;;;;;;;;;14.00;14.00;;;;;14.77;100.00;100815.94;2108152;27;46653;-61
2024/03/14 03:13:05;;;;;;;;;13.00;13.00;;;;;14.76;100.00;100808.84;2107418;27;46340;-61
2024/03/14 03:14:05;;;;;;;;;12.50;11.50;;;;;14.76;100.00;100814.19;2097294;28;46369;-61
2024/03/14 03:15:08;;;;;;;;;14.00;14.00;;;;;14.80;100.00;100807.78;2098342;28;46837;-60
2024/03/14 03:16:11;;;;;;;;;14.00;12.50;;;;;14.82;100.00;100808.59;2107962;27;46612;-61
2024/03/14 03:17:12;;;;;;;;;12.50;12.25;;;;;14.80;100.00;100805.13;2106651;27;46695;-61
2024/03/14 03:18:13;;;;;;;;;16.50;15.25;;;;;14.80;100.00;100809.59;2107013;27;46492;-61
2024/03/14 03:19:13;;;;;;;;;15.00;15.00;;;;;14.81;100.00;100812.19;2108137;27;45707;-60
2024/03/14 03:20:15;;;;;;;;;14.67;14.67;;;;;14.82;100.00;100805.94;2107171;27;46575;-61
2024/03/14 03:21:16;;;;;;;;;15.00;13.50;;;;;14.83;100.00;100809.47;2106040;27;46313;-60
2024/03/14 03:22:16;;;;;;;;;15.00;15.00;;;;;14.83;100.00;100810.34;2108073;27;46505;-61
2024/03/14 03:23:17;;;;;;;;;16.75;16.75;;;;;14.83;100.00;100806.78;2107712;27;46672;-61
2024/03/14 03:24:17;;;;;;;;;15.67;13.33;;;;;14.83;100.00;100812.13;2099015;28;46560;-61
2024/03/14 03:25:18;;;;;;;;;14.67;14.67;;;;;14.84;100.00;100800.53;2098157;28;46621;-61
2024/03/14 03:26:19;;;;;;;;;15.00;14.25;;;;;14.85;100.00;100804.94;2098302;28;46340;-61
2024/03/14 03:27:19;;;;;;;;;15.33;13.67;;;;;14.84;100.00;100797.84;2097949;28;46890;-60
2024/03/14 03:28:21;;;;;;;;;18.00;18.00;;;;;14.83;100.00;100796.97;2106657;27;46836;-61
2024/03/14 03:29:22;;;;;;;;;12.50;12.25;;;;;14.83;100.00;100802.31;2098290;28;45839;-61
2024/03/14 03:30:23;;;;;;;;;13.00;13.00;;;;;14.85;100.00;100799.59;2097996;28;46427;-60
2024/03/14 03:31:23;;;;;;;;;13.00;12.00;;;;;15.02;100.00;100800.69;2105302;27;46749;-61
2024/03/14 03:32:24;;;;;;;;;13.00;13.00;;;;;14.82;100.00;100797.03;2105265;27;45234;-62
2024/03/14 03:33:25;;;;;;;;;11.00;11.00;;;;;14.80;100.00;100793.56;2095211;28;46324;-60
2024/03/14 03:34:25;;;;;;;;;13.00;11.50;;;;;14.78;100.00;100803.44;2085882;28;46716;-63
2024/03/14 03:35:25;;;;;;;;;11.00;10.67;;;;;14.75;100.00;100790.22;2086609;28;45944;-61
2024/03/14 03:36:26;;;;;;;;;8.33;7.00;;;;;14.76;100.00;100795.50;2095274;28;45704;-61
2024/03/14 03:37:28;;;;;;;;;10.00;10.00;;;;;14.76;100.00;100795.50;2094951;28;46431;-60
2024/03/14 03:38:28;;;;;;;;;11.25;11.25;;;;;14.73;100.00;100787.56;2095137;28;46341;-59
2024/03/14 03:39:31;;;;;;;;;11.33;11.00;;;;;14.73;100.00;100793.78;2084439;28;46501;-60
2024/03/14 03:40:35;;;;;;;;;10.50;10.50;;;;;14.72;100.00;100789.38;2086203;28;46528;-59
2024/03/14 03:41:37;;;;;;;;;11.25;10.00;;;;;14.72;100.00;100789.38;2095194;28;46856;-60
2024/03/14 03:42:37;;;;;;;;;11.75;9.25;;;;;14.72;100.00;100783.16;2094742;28;46487;-59
2024/03/14 03:43:38;;;;;;;;;10.00;10.00;;;;;14.72;100.00;100780.47;2094676;28;46492;-60
2024/03/14 03:44:40;;;;;;;;;11.00;11.00;;;;;14.71;100.00;100778.75;2094610;28;46274;-61
2024/03/14 03:45:41;;;;;;;;;10.00;10.00;;;;;14.70;100.00;100775.19;2094789;28;46355;-60
2024/03/14 03:46:44;;;;;;;;;10.33;10.33;;;;;14.71;100.00;100773.41;2095300;28;45545;-61
2024/03/14 03:47:45;;;;;;;;;10.50;9.50;;;;;14.69;100.00;100778.81;2093541;28;46250;-60
2024/03/14 03:48:46;;;;;;;;;9.50;9.50;;;;;14.70;100.00;100777.00;2094886;28;46803;-60
2024/03/14 03:49:46;;;;;;;;;7.33;7.33;;;;;14.72;100.00;100778.69;2095150;28;46001;-60
2024/03/14 03:50:48;;;;;;;;;10.33;9.33;;;;;14.67;100.00;100778.00;2094496;28;46466;-59
2024/03/14 03:51:49;;;;;;;;;7.75;7.75;;;;;14.66;100.00;100773.59;2095256;28;46853;-60
2024/03/14 03:52:50;;;;;;;;;10.67;10.33;;;;;14.65;100.00;100777.19;2089174;28;46487;-59
2024/03/14 03:53:52;;;;;;;;;10.00;9.75;;;;;14.64;100.00;100780.78;2090416;28;46563;-60
2024/03/14 03:54:53;;;;;;;;;9.00;9.00;;;;;14.64;100.00;100778.13;2094569;28;46661;-60
2024/03/14 03:55:53;;;;;;;;;8.25;8.25;;;;;14.61;100.00;100785.34;2094941;28;46802;-61
2024/03/14 03:56:54;;;;;;;;;9.00;9.00;;;;;14.61;100.00;100775.56;2094849;28;46316;-61
2024/03/14 03:57:56;;;;;;;;;8.67;8.67;;;;;14.59;100.00;100772.06;2067448;28;45736;-61
2024/03/14 03:58:58;;;;;;;;;10.25;9.25;;;;;14.59;100.00;100771.19;2068755;28;46732;-61
2024/03/14 03:59:59;;;;;;;;;12.75;8.50;;;;;14.65;100.00;100770.97;2094858;28;47035;-61
2024/03/14 04:01:20;;;;;;;;;8.50;8.50;;;;;14.78;100.00;100769.56;2094552;28;46807;-63
2024/03/14 04:02:20;;;;;;;;;9.75;9.75;;;;;14.79;100.00;100765.09;2094854;28;46589;-61
2024/03/14 04:03:20;;;;;;;;;11.00;10.00;;;;;14.79;100.00;100768.66;2094555;28;46647;-61
2024/03/14 04:04:22;;;;;;;;;11.00;10.00;;;;;14.80;100.00;100769.50;2093447;28;45657;-60
2024/03/14 04:05:25;;;;;;;;;12.75;11.75;;;;;14.75;100.00;100768.84;2094706;28;46834;-61
2024/03/14 04:06:25;;;;;;;;;9.50;9.50;;;;;14.71;100.00;100773.41;2089386;28;46292;-61
2024/03/14 04:07:28;;;;;;;;;12.33;12.33;;;;;14.49;100.00;100761.81;2089991;28;45959;-61
2024/03/14 04:08:30;;;;;;;;;9.00;7.50;;;;;14.45;100.00;100766.34;2094674;28;46463;-60
2024/03/14 04:09:30;;;;;;;;;11.00;11.00;;;;;14.65;100.00;100766.50;2094545;28;46908;-61
2024/03/14 04:10:31;;;;;;;;;11.33;11.00;;;;;14.53;100.00;100763.41;2094512;28;46281;-60
2024/03/14 04:11:32;;;;;;;;;11.00;11.00;;;;;14.51;100.00;100767.94;2093366;28;46292;-61
2024/03/14 04:12:33;;;;;;;;;10.67;10.67;;;;;14.50;100.00;100766.22;2095107;28;46994;-62
2024/03/14 04:13:33;;;;;;;;;9.50;9.50;;;;;14.48;100.00;100757.34;2094526;28;46405;-61
2024/03/14 04:14:40;;;;;;;;;10.33;10.33;;;;;14.49;100.00;100765.34;2095279;28;46404;-61
2024/03/14 04:15:40;;;;;;;;;10.25;10.25;;;;;14.54;100.00;100762.50;2094535;28;46689;-60
2024/03/14 04:16:41;;;;;;;;;10.00;10.00;;;;;14.51;100.00;100762.59;2094704;28;46345;-59
2024/03/14 04:17:41;;;;;;;;;11.00;11.00;;;;;14.54;100.00;100759.81;2093092;28;45748;-59
2024/03/14 04:18:43;;;;;;;;;10.00;9.00;;;;;14.53;100.00;100766.97;2094926;28;45025;-61
2024/03/14 04:19:45;;;;;;;;;11.00;10.75;;;;;14.52;100.00;100767.03;2094619;28;46703;-61
2024/03/14 04:20:46;;;;;;;;;8.75;8.75;;;;;14.52;100.00;100761.69;2086119;28;46604;-61
2024/03/14 04:21:46;;;;;;;;;9.00;9.00;;;;;14.68;100.00;100769.03;2084410;28;46328;-59
2024/03/14 04:22:47;;;;;;;;;9.00;9.00;;;;;14.71;100.00;100760.91;2094670;28;47396;-60
2024/03/14 04:23:47;;;;;;;;;7.67;7.67;;;;;14.72;100.00;100759.09;2094582;28;46438;-60
2024/03/14 04:24:47;;;;;;;;;10.00;8.00;;;;;14.69;100.00;100751.22;2094861;28;46086;-60
2024/03/14 04:25:48;;;;;;;;;10.00;9.33;;;;;14.74;100.00;100751.94;2094784;28;46398;-60
2024/03/14 04:26:49;;;;;;;;;9.00;9.00;;;;;14.76;100.00;100758.09;2094920;28;46192;-61
2024/03/14 04:27:53;;;;;;;;;9.75;9.75;;;;;14.78;100.00;100758.03;2085948;28;46083;-60
2024/03/14 04:28:54;;;;;;;;;11.50;10.00;;;;;14.78;100.00;100755.34;2086597;28;46635;-61
2024/03/14 04:29:54;;;;;;;;;9.75;9.00;;;;;14.78;100.00;100758.91;2094246;28;46550;-61
2024/03/14 04:30:55;;;;;;;;;10.33;10.00;;;;;14.81;100.00;100749.88;2094855;28;46467;-59
2024/03/14 04:31:56;;;;;;;;;9.00;9.00;;;;;14.79;100.00;100757.97;2076272;28;46105;-61
2024/03/14 04:32:57;;;;;;;;;7.00;7.00;;;;;14.81;100.00;100764.09;2082960;28;46320;-59
2024/03/14 04:33:58;;;;;;;;;10.00;10.00;;;;;14.81;100.00;100761.44;2103161;28;45876;-60
2024/03/14 04:34:58;;;;;;;;;13.00;11.75;;;;;14.80;100.00;100758.81;2084948;28;47827;-61
2024/03/14 04:35:58;;;;;;;;;12.00;9.67;;;;;14.81;100.00;100752.56;2084984;28;46852;-60
2024/03/14 04:37:00;;;;;;;;;9.33;9.00;;;;;14.81;100.00;100752.56;2084137;28;46614;-61